Map

Track Data

SID SEASON NUMBER BASIN SUBBASIN NAME ISO_TIME NATURE LAT LON WMO_WIND WMO_PRES WMO_AGENCY TRACK_TYPE DIST2LAND LANDFALL IFLAG USA_AGENCY USA_ATCF_ID USA_LAT USA_LON USA_RECORD USA_STATUS USA_WIND USA_PRES USA_SSHS USA_R34_NE USA_R34_SE USA_R34_SW USA_R34_NW USA_R50_NE USA_R50_SE USA_R50_SW USA_R50_NW USA_R64_NE USA_R64_SE USA_R64_SW USA_R64_NW USA_POCI USA_ROCI USA_RMW USA_EYE TOKYO_LAT TOKYO_LON TOKYO_GRADE TOKYO_WIND TOKYO_PRES TOKYO_R50_DIR TOKYO_R50_LONG TOKYO_R50_SHORT TOKYO_R30_DIR TOKYO_R30_LONG TOKYO_R30_SHORT TOKYO_LAND CMA_LAT CMA_LON CMA_CAT CMA_WIND CMA_PRES HKO_LAT HKO_LON HKO_CAT HKO_WIND HKO_PRES NEWDELHI_LAT NEWDELHI_LON NEWDELHI_GRADE NEWDELHI_WIND NEWDELHI_PRES NEWDELHI_CI NEWDELHI_DP NEWDELHI_POCI REUNION_LAT REUNION_LON REUNION_TYPE REUNION_WIND REUNION_PRES REUNION_TNUM REUNION_CI REUNION_RMW REUNION_R34_NE REUNION_R34_SE REUNION_R34_SW REUNION_R34_NW REUNION_R50_NE REUNION_R50_SE REUNION_R50_SW REUNION_R50_NW REUNION_R64_NE REUNION_R64_SE REUNION_R64_SW REUNION_R64_NW BOM_LAT BOM_LON BOM_TYPE BOM_WIND BOM_PRES BOM_TNUM BOM_CI BOM_RMW BOM_R34_NE BOM_R34_SE BOM_R34_SW BOM_R34_NW BOM_R50_NE BOM_R50_SE BOM_R50_SW BOM_R50_NW BOM_R64_NE BOM_R64_SE BOM_R64_SW BOM_R64_NW BOM_ROCI BOM_POCI BOM_EYE BOM_POS_METHOD BOM_PRES_METHOD NADI_LAT NADI_LON NADI_CAT NADI_WIND NADI_PRES WELLINGTON_LAT WELLINGTON_LON WELLINGTON_WIND WELLINGTON_PRES DS824_LAT DS824_LON DS824_STAGE DS824_WIND DS824_PRES TD9636_LAT TD9636_LON TD9636_STAGE TD9636_WIND TD9636_PRES TD9635_LAT TD9635_LON TD9635_WIND TD9635_PRES TD9635_ROCI NEUMANN_LAT NEUMANN_LON NEUMANN_CLASS NEUMANN_WIND NEUMANN_PRES MLC_LAT MLC_LON MLC_CLASS MLC_WIND MLC_PRES USA_GUST BOM_GUST BOM_GUST_PER REUNION_GUST REUNION_GUST_PER USA_SEAHGT USA_SEARAD_NE USA_SEARAD_SE USA_SEARAD_SW USA_SEARAD_NW STORM_SPEED STORM_DIR
1879345S16054 1880 36 SI MM NOT_NAMED 1879-12-11 00:00:00 TS -15.9000 54.1000 main 389 382 _________O____ -1 -15.9000 54.1000 TC 7 194
1879345S16054 1880 36 SI MM NOT_NAMED 1879-12-11 03:00:00 TS -16.2475 54.0125 main 385 383 _________P____ -1 -16.2475 54.0125 TC 7 195
1879345S16054 1880 36 SI MM NOT_NAMED 1879-12-11 06:00:00 TS -16.6000 53.9000 main 387 381 _________O____ -1 -16.6000 53.9000 TC 8 199
1879345S16054 1880 36 SI MM NOT_NAMED 1879-12-11 09:00:00 TS -16.9575 53.7500 main 395 385 _________P____ -1 -16.9575 53.7500 TC 8 202
1879345S16054 1880 36 SI MM NOT_NAMED 1879-12-11 12:00:00 TS -17.3000 53.6000 main 389 389 _________O____ -1 -17.3000 53.6000 TC 7 200
1879345S16054 1880 36 SI MM NOT_NAMED 1879-12-11 15:00:00 TS -17.6075 53.4999 main 394 394 _________P____ -1 -17.6075 53.4999 TC 6 198
1879345S16054 1880 36 SI MM NOT_NAMED 1879-12-11 18:00:00 TS -17.9000 53.4000 main 399 376 _________O____ -1 -17.9000 53.4000 TC 6 202
1879345S16054 1880 36 SI MM NOT_NAMED 1879-12-11 21:00:00 TS -18.1925 53.2575 main 376 362 _________P____ -1 -18.1925 53.2575 TC 7 205
1879345S16054 1880 36 SI MM NOT_NAMED 1879-12-12 00:00:00 TS -18.5000 53.1000 main 362 344 _________O____ -1 -18.5000 53.1000 TC 7 203
1879345S16054 1880 36 SI MM NOT_NAMED 1879-12-12 03:00:00 TS -18.8500 52.9574 main 344 328 _________P____ -1 -18.8500 52.9574 TC 8 202
1879345S16054 1880 36 SI MM NOT_NAMED 1879-12-12 06:00:00 TS -19.2000 52.8000 main 328 321 _________O____ -1 -19.2000 52.8000 TC 7 208
1879345S16054 1880 36 SI MM NOT_NAMED 1879-12-12 09:00:00 TS -19.5000 52.5925 main 324 321 _________P____ -1 -19.5000 52.5925 TC 7 212
1879345S16054 1880 36 SI MM NOT_NAMED 1879-12-12 12:00:00 TS -19.8000 52.4000 main 325 320 _________O____ -1 -19.8000 52.4000 TC 7 204
1879345S16054 1880 36 SI MM NOT_NAMED 1879-12-12 15:00:00 TS -20.1499 52.2924 main 321 314 _________P____ -1 -20.1499 52.2924 TC 7 195
1879345S16054 1880 36 SI MM NOT_NAMED 1879-12-12 18:00:00 TS -20.5000 52.2000 main 318 316 _________O____ -1 -20.5000 52.2000 TC 7 198
1879345S16054 1880 36 SI MM NOT_NAMED 1879-12-12 21:00:00 TS -20.8075 52.0575 main 323 323 _________P____ -1 -20.8075 52.0575 TC 7 205
1879345S16054 1880 36 SI MM NOT_NAMED 1879-12-13 00:00:00 TS -21.1000 51.9000 main 342 339 _________O____ -1 -21.1000 51.9000 TC 7 206
1879345S16054 1880 36 SI MM NOT_NAMED 1879-12-13 03:00:00 TS -21.4000 51.7499 main 339 338 _________P____ -1 -21.4000 51.7499 TC 7 205
1879345S16054 1880 36 SI MM NOT_NAMED 1879-12-13 06:00:00 TS -21.7000 51.6000 main 340 333 _________O____ -1 -21.7000 51.6000 TC 7 205
1879345S16054 1880 36 SI MM NOT_NAMED 1879-12-13 09:00:00 TS -22.0000 51.4499 main 327 322 _________P____ -1 -22.0000 51.4499 TC 7 205
1879345S16054 1880 36 SI MM NOT_NAMED 1879-12-13 12:00:00 TS -22.3000 51.3000 main 324 316 _________O____ -1 -22.3000 51.3000 TC 7 205
1879345S16054 1880 36 SI MM NOT_NAMED 1879-12-13 15:00:00 TS -22.6000 51.1499 main 311 308 _________P____ -1 -22.6000 51.1499 TC 7 205
1879345S16054 1880 36 SI MM NOT_NAMED 1879-12-13 18:00:00 TS -22.9000 51.0000 main 313 308 _________O____ -1 -22.9000 51.0000 TC 7 205
1879345S16054 1880 36 SI MM NOT_NAMED 1879-12-13 21:00:00 TS -23.2000 50.8501 main 317 301 _________P____ -1 -23.2000 50.8501 TC 7 205
1879345S16054 1880 36 SI MM NOT_NAMED 1879-12-14 00:00:00 TS -23.5000 50.7000 main 303 _________O____ -1 -23.5000 50.7000 TC 7 204

About IBTrACS Database

This database is a web-friendly format of International Best Track Archive for Climate Stewardship (IBTrACS), a global best track data archive curated by NOAA dating back to 1842.

Updated: 2021-12-01